Mississippi Enterprise — WDE2542 — position and weather

sailwx.info

Track history (hours):
 
Tides and Currents Weather Stations Pressure Air Temp Water Temp Dewpoint Dewpoint Depression Visibility Wind Speed Wind Dir Waves Ship Positions

Mississippi Enterprise

More information available from US FCC via Universal Licensing System and Coast Guard Vessel Documentation Center.

Last reported at 2014-Sep-14 04:33 UTC. Time now 2014-Sep-18 13:46 UTC.
Position N 27°36' W 082°56'.

Length 187 m; draft 9.4 m.

Type: Cargo ship. MMSI: 369813000.

Date/timePositionNaut miles runAvg speedWind from/ knotsBaromVisibWave heightAir tempDewpointWater temp
2014-Sep-14 04:33N 27°36' W 082°56'1212.2
2014-Sep-14 03:33N 27°37' W 082°42'1211.7
2014-Sep-14 02:33N 27°44' W 082°32'1010.2
2014-Sep-14 01:33N 27°53' W 082°26'3 0.8
2014-Sep-13 21:33N 27°56' W 082°26'0 0.0
2014-Sep-13 20:27N 27°56' W 082°26'0 0.0
2014-Sep-13 19:33N 27°56' W 082°26'0 0.0
2014-Sep-13 18:33N 27°56' W 082°26'0 0.0
2014-Sep-13 17:33N 27°56' W 082°26'0 0.0
2014-Sep-13 16:33N 27°56' W 082°26'0 0.0
2014-Sep-13 15:33N 27°56' W 082°26'0 0.0
2014-Sep-13 14:33N 27°56' W 082°26'0 0.1
2014-Sep-13 13:33N 27°56' W 082°26'0 0.0
2014-Sep-13 12:33N 27°56' W 082°26'0 0.0
2014-Sep-13 11:33N 27°56' W 082°26'0 0.0
2014-Sep-13 10:33N 27°56' W 082°26'0 0.1
2014-Sep-13 09:33N 27°56' W 082°26'0 0.0
2014-Sep-13 08:33N 27°56' W 082°26'0 0.0
2014-Sep-13 07:33N 27°56' W 082°26'0 0.0
2014-Sep-13 06:33N 27°56' W 082°26'0 0.0
2014-Sep-13 05:33N 27°56' W 082°26'0 0.0
2014-Sep-13 04:33N 27°56' W 082°26'0 0.0
2014-Sep-13 03:33N 27°56' W 082°26'0 0.0
2014-Sep-13 02:33N 27°56' W 082°26'0 0.0
2014-Sep-13 01:33N 27°56' W 082°26'0 0.0
2014-Sep-13 00:33N 27°56' W 082°26'0 0.0
2014-Sep-12 23:33N 27°56' W 082°26'0 0.0
2014-Sep-12 22:33N 27°56' W 082°26'0 0.0
2014-Sep-12 21:33N 27°56' W 082°26'0 0.0
2014-Sep-12 20:33N 27°56' W 082°26'0 0.0
2014-Sep-12 19:33N 27°56' W 082°26'0 0.0
2014-Sep-12 18:33N 27°56' W 082°26'0 0.1
2014-Sep-12 17:33N 27°56' W 082°26'0 0.0
2014-Sep-12 16:33N 27°56' W 082°26'0 0.0
2014-Sep-12 15:33N 27°56' W 082°26'0 0.0
2014-Sep-12 14:33N 27°56' W 082°26'0 0.0
2014-Sep-12 13:33N 27°56' W 082°26'0 0.0
2014-Sep-12 12:30N 27°56' W 082°26'0 0.0
2014-Sep-12 11:33N 27°56' W 082°26'0 0.5
2014-Sep-12 10:33N 27°55' W 082°26'7 6.6
2014-Sep-12 09:33N 27°49' W 082°26'2 1.7
2014-Sep-12 08:33N 27°48' W 082°24'0 0.0
2014-Sep-12 07:33N 27°48' W 082°24'0 0.0
2014-Sep-12 06:33N 27°48' W 082°24'0 0.0
2014-Sep-12 05:33N 27°48' W 082°24'0 0.0
2014-Sep-12 04:33N 27°48' W 082°24'0 0.0
2014-Sep-12 03:33N 27°48' W 082°24'0 0.0
2014-Sep-12 02:33N 27°48' W 082°24'0 0.0
2014-Sep-12 01:33N 27°48' W 082°24'0 0.0
2014-Sep-12 00:33N 27°48' W 082°24'0 0.3
2014-Sep-11 23:33N 27°48' W 082°25'1 0.6
2014-Sep-11 22:30N 27°48' W 082°25'0 0.0
2014-Sep-11 21:30N 27°48' W 082°25'0 0.0
2014-Sep-11 19:30N 27°48' W 082°25'0 0.0
2014-Sep-11 18:21N 27°48' W 082°25'0 0.0
2014-Sep-11 16:30N 27°48' W 082°25'0 0.0
2014-Sep-11 15:27N 27°48' W 082°25'0 0.0
2014-Sep-11 14:30N 27°48' W 082°25'0 0.0
2014-Sep-11 12:33N 27°48' W 082°25'0 0.0
2014-Sep-11 11:30N 27°48' W 082°25'0 0.0
2014-Sep-11 10:33N 27°48' W 082°25'0 0.0
2014-Sep-11 09:33N 27°48' W 082°25'0 0.0
2014-Sep-11 08:30N 27°48' W 082°25'6 0.2
2014-Sep-09 23:06N 27°47' W 082°31'611.1
2014-Sep-09 22:33N 27°41' W 082°34'1110.7
2014-Sep-09 21:33N 27°36' W 082°45'1212.2
2014-Sep-09 20:33N 27°35' W 082°59'  
2014-Sep-07 10:18N 29°58' W 090°14'810.7
2014-Sep-07 09:33N 29°58' W 090°24'1111.5
2014-Sep-07 08:34N 30°03' W 090°36'1211.9
2014-Sep-07 07:33N 29°59' W 090°49'2 0.2
2014-Sep-07 01:19N 30°00' W 090°50'0 0.0
2014-Sep-06 08:28N 30°00' W 090°50'0 0.0
2014-Sep-06 07:10N 30°00' W 090°50'0 0.0
2014-Sep-06 05:04N 30°00' W 090°50'0 0.0
2014-Sep-06 04:25N 30°00' W 090°50'0 0.0
2014-Sep-06 00:28N 30°00' W 090°50'0 0.0
2014-Sep-04 06:30N 30°00' W 090°50'1 0.7
2014-Sep-04 05:33N 29°59' W 090°50'  
Track history (hours):
 
Tides and Currents Weather Stations Pressure Air Temp Water Temp Dewpoint Dewpoint Depression Visibility Wind Speed Wind Dir Waves Ship Positions

Mississippi Enterprise

More information available from US FCC via Universal Licensing System and Coast Guard Vessel Documentation Center.

Last reported at 2014-Sep-14 04:33 UTC. Time now 2014-Sep-18 13:46 UTC.
Position N 27°36' W 082°56'.

Length 187 m; draft 9.4 m.

Type: Cargo ship. MMSI: 369813000.

Date/timePositionNaut miles runAvg speedWind from/ knotsBaromVisibWave heightAir tempDewpointWater temp
2014-Sep-14 04:33N 27°36' W 082°56'1212.2
2014-Sep-14 03:33N 27°37' W 082°42'1211.7
2014-Sep-14 02:33N 27°44' W 082°32'1010.2
2014-Sep-14 01:33N 27°53' W 082°26'3 0.8
2014-Sep-13 21:33N 27°56' W 082°26'0 0.0
2014-Sep-13 20:27N 27°56' W 082°26'0 0.0
2014-Sep-13 19:33N 27°56' W 082°26'0 0.0
2014-Sep-13 18:33N 27°56' W 082°26'0 0.0
2014-Sep-13 17:33N 27°56' W 082°26'0 0.0
2014-Sep-13 16:33N 27°56' W 082°26'0 0.0
2014-Sep-13 15:33N 27°56' W 082°26'0 0.0
2014-Sep-13 14:33N 27°56' W 082°26'0 0.1
2014-Sep-13 13:33N 27°56' W 082°26'0 0.0
2014-Sep-13 12:33N 27°56' W 082°26'0 0.0
2014-Sep-13 11:33N 27°56' W 082°26'0 0.0
2014-Sep-13 10:33N 27°56' W 082°26'0 0.1
2014-Sep-13 09:33N 27°56' W 082°26'0 0.0
2014-Sep-13 08:33N 27°56' W 082°26'0 0.0
2014-Sep-13 07:33N 27°56' W 082°26'0 0.0
2014-Sep-13 06:33N 27°56' W 082°26'0 0.0
2014-Sep-13 05:33N 27°56' W 082°26'0 0.0
2014-Sep-13 04:33N 27°56' W 082°26'0 0.0
2014-Sep-13 03:33N 27°56' W 082°26'0 0.0
2014-Sep-13 02:33N 27°56' W 082°26'0 0.0
2014-Sep-13 01:33N 27°56' W 082°26'0 0.0
2014-Sep-13 00:33N 27°56' W 082°26'0 0.0
2014-Sep-12 23:33N 27°56' W 082°26'0 0.0
2014-Sep-12 22:33N 27°56' W 082°26'0 0.0
2014-Sep-12 21:33N 27°56' W 082°26'0 0.0
2014-Sep-12 20:33N 27°56' W 082°26'0 0.0
2014-Sep-12 19:33N 27°56' W 082°26'0 0.0
2014-Sep-12 18:33N 27°56' W 082°26'0 0.1
2014-Sep-12 17:33N 27°56' W 082°26'0 0.0
2014-Sep-12 16:33N 27°56' W 082°26'0 0.0
2014-Sep-12 15:33N 27°56' W 082°26'0 0.0
2014-Sep-12 14:33N 27°56' W 082°26'0 0.0
2014-Sep-12 13:33N 27°56' W 082°26'0 0.0
2014-Sep-12 12:30N 27°56' W 082°26'0 0.0
2014-Sep-12 11:33N 27°56' W 082°26'0 0.5
2014-Sep-12 10:33N 27°55' W 082°26'7 6.6
2014-Sep-12 09:33N 27°49' W 082°26'2 1.7
2014-Sep-12 08:33N 27°48' W 082°24'0 0.0
2014-Sep-12 07:33N 27°48' W 082°24'0 0.0
2014-Sep-12 06:33N 27°48' W 082°24'0 0.0
2014-Sep-12 05:33N 27°48' W 082°24'0 0.0
2014-Sep-12 04:33N 27°48' W 082°24'0 0.0
2014-Sep-12 03:33N 27°48' W 082°24'0 0.0
2014-Sep-12 02:33N 27°48' W 082°24'0 0.0
2014-Sep-12 01:33N 27°48' W 082°24'0 0.0
2014-Sep-12 00:33N 27°48' W 082°24'0 0.3
2014-Sep-11 23:33N 27°48' W 082°25'1 0.6
2014-Sep-11 22:30N 27°48' W 082°25'0 0.0
2014-Sep-11 21:30N 27°48' W 082°25'0 0.0
2014-Sep-11 19:30N 27°48' W 082°25'0 0.0
2014-Sep-11 18:21N 27°48' W 082°25'0 0.0
2014-Sep-11 16:30N 27°48' W 082°25'0 0.0
2014-Sep-11 15:27N 27°48' W 082°25'0 0.0
2014-Sep-11 14:30N 27°48' W 082°25'0 0.0
2014-Sep-11 12:33N 27°48' W 082°25'0 0.0
2014-Sep-11 11:30N 27°48' W 082°25'0 0.0
2014-Sep-11 10:33N 27°48' W 082°25'0 0.0
2014-Sep-11 09:33N 27°48' W 082°25'0 0.0
2014-Sep-11 08:30N 27°48' W 082°25'6 0.2
2014-Sep-09 23:06N 27°47' W 082°31'611.1
2014-Sep-09 22:33N 27°41' W 082°34'1110.7
2014-Sep-09 21:33N 27°36' W 082°45'1212.2
2014-Sep-09 20:33N 27°35' W 082°59'  
2014-Sep-07 10:18N 29°58' W 090°14'810.7
2014-Sep-07 09:33N 29°58' W 090°24'1111.5
2014-Sep-07 08:34N 30°03' W 090°36'1211.9
2014-Sep-07 07:33N 29°59' W 090°49'2 0.2
2014-Sep-07 01:19N 30°00' W 090°50'0 0.0
2014-Sep-06 08:28N 30°00' W 090°50'0 0.0
2014-Sep-06 07:10N 30°00' W 090°50'0 0.0
2014-Sep-06 05:04N 30°00' W 090°50'0 0.0
2014-Sep-06 04:25N 30°00' W 090°50'0 0.0
2014-Sep-06 00:28N 30°00' W 090°50'0 0.0
2014-Sep-04 06:30N 30°00' W 090°50'1 0.7
2014-Sep-04 05:33N 29°59' W 090°50'  

Dump ship's entire track history